sensor_id;sensor_type;location;lat;lon;timestamp;temperature;humidity
21891;DHT22;11110;52.386;16.940;2023-04-03T00:01:24;14.20;38.90
21891;DHT22;11110;52.386;16.940;2023-04-03T00:03:53;14.30;39.00
21891;DHT22;11110;52.386;16.940;2023-04-03T00:06:22;14.20;39.00
21891;DHT22;11110;52.386;16.940;2023-04-03T00:08:51;14.20;39.10
21891;DHT22;11110;52.386;16.940;2023-04-03T00:11:20;14.30;39.20
21891;DHT22;11110;52.386;16.940;2023-04-03T00:13:49;14.30;39.10
21891;DHT22;11110;52.386;16.940;2023-04-03T00:16:17;14.20;39.10
21891;DHT22;11110;52.386;16.940;2023-04-03T00:18:48;14.20;39.20
21891;DHT22;11110;52.386;16.940;2023-04-03T00:21:16;14.20;39.20
21891;DHT22;11110;52.386;16.940;2023-04-03T00:23:45;14.20;39.20
21891;DHT22;11110;52.386;16.940;2023-04-03T00:26:13;14.10;39.30
21891;DHT22;11110;52.386;16.940;2023-04-03T00:28:42;14.20;39.40
21891;DHT22;11110;52.386;16.940;2023-04-03T00:31:14;14.30;39.50
21891;DHT22;11110;52.386;16.940;2023-04-03T00:33:44;14.20;39.30
21891;DHT22;11110;52.386;16.940;2023-04-03T00:36:15;14.30;39.30
21891;DHT22;11110;52.386;16.940;2023-04-03T00:38:44;14.30;39.20
21891;DHT22;11110;52.386;16.940;2023-04-03T00:41:12;14.40;39.20
21891;DHT22;11110;52.386;16.940;2023-04-03T00:43:41;14.30;39.10
21891;DHT22;11110;52.386;16.940;2023-04-03T00:46:10;14.20;39.20
21891;DHT22;11110;52.386;16.940;2023-04-03T00:48:40;14.20;39.20
21891;DHT22;11110;52.386;16.940;2023-04-03T00:51:11;14.30;39.40
21891;DHT22;11110;52.386;16.940;2023-04-03T00:53:46;14.20;39.20
21891;DHT22;11110;52.386;16.940;2023-04-03T00:56:17;14.10;39.50
21891;DHT22;11110;52.386;16.940;2023-04-03T00:58:50;13.90;39.50
21891;DHT22;11110;52.386;16.940;2023-04-03T01:01:22;13.80;39.70
21891;DHT22;11110;52.386;16.940;2023-04-03T01:03:52;13.80;39.90
21891;DHT22;11110;52.386;16.940;2023-04-03T01:06:25;13.70;39.90
21891;DHT22;11110;52.386;16.940;2023-04-03T01:08:59;13.80;40.00
21891;DHT22;11110;52.386;16.940;2023-04-03T01:11:28;13.80;39.90
21891;DHT22;11110;52.386;16.940;2023-04-03T01:13:57;13.80;39.80
21891;DHT22;11110;52.386;16.940;2023-04-03T01:16:25;13.80;40.10
21891;DHT22;11110;52.386;16.940;2023-04-03T01:18:55;13.70;40.20
21891;DHT22;11110;52.386;16.940;2023-04-03T01:21:53;13.60;40.40
21891;DHT22;11110;52.386;16.940;2023-04-03T01:24:35;13.60;40.40
21891;DHT22;11110;52.386;16.940;2023-04-03T01:27:10;13.70;40.50
21891;DHT22;11110;52.386;16.940;2023-04-03T01:29:40;13.80;40.40
21891;DHT22;11110;52.386;16.940;2023-04-03T01:32:12;13.80;40.20
21891;DHT22;11110;52.386;16.940;2023-04-03T01:34:41;13.80;40.80
21891;DHT22;11110;52.386;16.940;2023-04-03T01:37:10;13.90;40.10
21891;DHT22;11110;52.386;16.940;2023-04-03T01:39:39;13.80;40.10
21891;DHT22;11110;52.386;16.940;2023-04-03T01:42:08;13.80;40.20
21891;DHT22;11110;52.386;16.940;2023-04-03T01:44:40;13.70;40.20
21891;DHT22;11110;52.386;16.940;2023-04-03T01:47:08;13.70;40.30
21891;DHT22;11110;52.386;16.940;2023-04-03T01:49:40;13.70;40.40
21891;DHT22;11110;52.386;16.940;2023-04-03T01:52:09;13.60;41.20
21891;DHT22;11110;52.386;16.940;2023-04-03T01:54:38;13.50;40.70
21891;DHT22;11110;52.386;16.940;2023-04-03T01:57:06;13.40;40.70
21891;DHT22;11110;52.386;16.940;2023-04-03T01:59:36;13.40;40.80
21891;DHT22;11110;52.386;16.940;2023-04-03T02:02:04;13.50;41.10
21891;DHT22;11110;52.386;16.940;2023-04-03T02:04:33;13.50;40.90
21891;DHT22;11110;52.386;16.940;2023-04-03T02:07:03;13.60;40.90
21891;DHT22;11110;52.386;16.940;2023-04-03T02:09:33;13.60;40.70
21891;DHT22;11110;52.386;16.940;2023-04-03T02:12:02;13.70;40.70
21891;DHT22;11110;52.386;16.940;2023-04-03T02:14:32;13.60;40.60
21891;DHT22;11110;52.386;16.940;2023-04-03T02:17:00;13.60;40.70
21891;DHT22;11110;52.386;16.940;2023-04-03T02:19:32;13.60;40.70
21891;DHT22;11110;52.386;16.940;2023-04-03T02:22:03;13.60;40.80
21891;DHT22;11110;52.386;16.940;2023-04-03T02:24:32;13.60;40.80
21891;DHT22;11110;52.386;16.940;2023-04-03T02:27:00;13.50;40.90
21891;DHT22;11110;52.386;16.940;2023-04-03T02:29:29;13.60;41.00
21891;DHT22;11110;52.386;16.940;2023-04-03T02:31:58;13.50;41.10
21891;DHT22;11110;52.386;16.940;2023-04-03T02:34:27;13.40;41.10
21891;DHT22;11110;52.386;16.940;2023-04-03T02:36:58;13.40;41.20
21891;DHT22;11110;52.386;16.940;2023-04-03T02:39:28;13.40;41.30
21891;DHT22;11110;52.386;16.940;2023-04-03T02:41:58;13.30;41.40
21891;DHT22;11110;52.386;16.940;2023-04-03T02:44:28;13.30;41.50
21891;DHT22;11110;52.386;16.940;2023-04-03T02:46:57;13.30;41.30
21891;DHT22;11110;52.386;16.940;2023-04-03T02:49:26;13.40;41.30
21891;DHT22;11110;52.386;16.940;2023-04-03T02:51:54;13.40;41.40
21891;DHT22;11110;52.386;16.940;2023-04-03T02:54:23;13.40;41.40
21891;DHT22;11110;52.386;16.940;2023-04-03T02:56:59;13.40;41.30
21891;DHT22;11110;52.386;16.940;2023-04-03T02:59:28;13.40;41.30
21891;DHT22;11110;52.386;16.940;2023-04-03T03:01:56;13.40;41.30
21891;DHT22;11110;52.386;16.940;2023-04-03T03:04:25;13.40;41.30
21891;DHT22;11110;52.386;16.940;2023-04-03T03:06:54;13.40;41.30
21891;DHT22;11110;52.386;16.940;2023-04-03T03:09:23;13.40;41.40
21891;DHT22;11110;52.386;16.940;2023-04-03T03:11:52;13.40;41.40
21891;DHT22;11110;52.386;16.940;2023-04-03T03:14:22;13.40;41.40
21891;DHT22;11110;52.386;16.940;2023-04-03T03:16:51;13.40;41.50
21891;DHT22;11110;52.386;16.940;2023-04-03T03:19:20;13.50;41.30
21891;DHT22;11110;52.386;16.940;2023-04-03T03:21:48;13.60;41.30
21891;DHT22;11110;52.386;16.940;2023-04-03T03:24:18;13.60;41.20
21891;DHT22;11110;52.386;16.940;2023-04-03T03:26:47;13.60;41.20
21891;DHT22;11110;52.386;16.940;2023-04-03T03:29:16;13.70;41.20
21891;DHT22;11110;52.386;16.940;2023-04-03T03:31:46;13.70;41.10
21891;DHT22;11110;52.386;16.940;2023-04-03T03:34:15;13.70;40.90
21891;DHT22;11110;52.386;16.940;2023-04-03T03:36:44;13.80;40.90
21891;DHT22;11110;52.386;16.940;2023-04-03T03:39:13;13.90;40.80
21891;DHT22;11110;52.386;16.940;2023-04-03T03:41:41;13.90;40.70
21891;DHT22;11110;52.386;16.940;2023-04-03T03:44:10;13.80;40.70
21891;DHT22;11110;52.386;16.940;2023-04-03T03:46:41;13.90;40.80
21891;DHT22;11110;52.386;16.940;2023-04-03T03:49:11;14.00;40.70
21891;DHT22;11110;52.386;16.940;2023-04-03T03:51:40;14.30;40.70
21891;DHT22;11110;52.386;16.940;2023-04-03T03:54:09;14.20;40.30
21891;DHT22;11110;52.386;16.940;2023-04-03T03:56:38;14.30;40.30
21891;DHT22;11110;52.386;16.940;2023-04-03T03:59:07;14.30;40.10
21891;DHT22;11110;52.386;16.940;2023-04-03T04:01:35;14.30;40.20
21891;DHT22;11110;52.386;16.940;2023-04-03T04:04:04;14.30;40.10
21891;DHT22;11110;52.386;16.940;2023-04-03T04:06:34;14.40;39.90
21891;DHT22;11110;52.386;16.940;2023-04-03T04:09:08;14.40;39.80
21891;DHT22;11110;52.386;16.940;2023-04-03T04:11:37;14.20;39.80
21891;DHT22;11110;52.386;16.940;2023-04-03T04:14:08;14.30;40.00
21891;DHT22;11110;52.386;16.940;2023-04-03T04:16:37;14.00;40.10
21891;DHT22;11110;52.386;16.940;2023-04-03T04:19:12;14.00;40.20
21891;DHT22;11110;52.386;16.940;2023-04-03T04:21:41;14.00;40.10
21891;DHT22;11110;52.386;16.940;2023-04-03T04:24:11;14.10;40.20
21891;DHT22;11110;52.386;16.940;2023-04-03T04:26:39;14.00;40.20
21891;DHT22;11110;52.386;16.940;2023-04-03T04:29:11;14.00;40.30
21891;DHT22;11110;52.386;16.940;2023-04-03T04:31:40;13.90;40.30
21891;DHT22;11110;52.386;16.940;2023-04-03T04:34:09;13.80;40.30
21891;DHT22;11110;52.386;16.940;2023-04-03T04:36:37;13.60;40.50
21891;DHT22;11110;52.386;16.940;2023-04-03T04:39:08;13.50;40.80
21891;DHT22;11110;52.386;16.940;2023-04-03T04:41:37;13.40;40.80
21891;DHT22;11110;52.386;16.940;2023-04-03T04:44:06;13.30;41.00
21891;DHT22;11110;52.386;16.940;2023-04-03T04:46:36;13.30;41.20
21891;DHT22;11110;52.386;16.940;2023-04-03T04:49:05;13.50;41.30
21891;DHT22;11110;52.386;16.940;2023-04-03T04:51:34;13.70;41.20
21891;DHT22;11110;52.386;16.940;2023-04-03T04:54:22;13.70;40.90
21891;DHT22;11110;52.386;16.940;2023-04-03T04:56:51;13.70;40.90
21891;DHT22;11110;52.386;16.940;2023-04-03T04:59:20;13.80;40.70
21891;DHT22;11110;52.386;16.940;2023-04-03T05:01:50;13.80;40.70
21891;DHT22;11110;52.386;16.940;2023-04-03T05:04:20;13.80;40.50
21891;DHT22;11110;52.386;16.940;2023-04-03T05:06:53;13.90;40.50
21891;DHT22;11110;52.386;16.940;2023-04-03T05:09:26;14.00;40.60
21891;DHT22;11110;52.386;16.940;2023-04-03T05:11:55;13.80;40.40
21891;DHT22;11110;52.386;16.940;2023-04-03T05:14:27;13.90;40.50
21891;DHT22;11110;52.386;16.940;2023-04-03T05:17:02;13.80;40.50
21891;DHT22;11110;52.386;16.940;2023-04-03T05:19:33;13.70;40.70
21891;DHT22;11110;52.386;16.940;2023-04-03T05:22:04;13.80;41.00
21891;DHT22;11110;52.386;16.940;2023-04-03T05:24:34;13.70;40.90
21891;DHT22;11110;52.386;16.940;2023-04-03T05:27:04;13.90;41.10
21891;DHT22;11110;52.386;16.940;2023-04-03T05:29:36;13.80;40.90
21891;DHT22;11110;52.386;16.940;2023-04-03T05:32:05;13.80;40.70
21891;DHT22;11110;52.386;16.940;2023-04-03T05:34:34;13.70;40.70
21891;DHT22;11110;52.386;16.940;2023-04-03T05:37:03;13.60;40.80
21891;DHT22;11110;52.386;16.940;2023-04-03T05:39:35;13.60;41.00
21891;DHT22;11110;52.386;16.940;2023-04-03T05:42:05;13.50;41.00
21891;DHT22;11110;52.386;16.940;2023-04-03T05:44:34;13.50;41.00
21891;DHT22;11110;52.386;16.940;2023-04-03T05:47:04;13.60;41.10
21891;DHT22;11110;52.386;16.940;2023-04-03T05:49:33;13.50;41.20
21891;DHT22;11110;52.386;16.940;2023-04-03T05:52:02;13.40;41.00
21891;DHT22;11110;52.386;16.940;2023-04-03T05:54:32;13.40;41.20
21891;DHT22;11110;52.386;16.940;2023-04-03T05:57:09;13.30;41.30
21891;DHT22;11110;52.386;16.940;2023-04-03T05:59:41;13.30;41.40
21891;DHT22;11110;52.386;16.940;2023-04-03T06:02:11;13.40;41.60
21891;DHT22;11110;52.386;16.940;2023-04-03T06:04:40;13.40;41.50
21891;DHT22;11110;52.386;16.940;2023-04-03T06:07:11;13.50;41.40
21891;DHT22;11110;52.386;16.940;2023-04-03T06:09:40;13.50;41.30
21891;DHT22;11110;52.386;16.940;2023-04-03T06:12:11;13.60;41.20
21891;DHT22;11110;52.386;16.940;2023-04-03T06:14:40;13.70;41.20
21891;DHT22;11110;52.386;16.940;2023-04-03T06:17:08;13.70;41.00
21891;DHT22;11110;52.386;16.940;2023-04-03T06:19:39;13.80;41.00
21891;DHT22;11110;52.386;16.940;2023-04-03T06:22:08;13.80;40.70
21891;DHT22;11110;52.386;16.940;2023-04-03T06:24:37;13.80;40.80
21891;DHT22;11110;52.386;16.940;2023-04-03T06:27:05;13.80;40.80
21891;DHT22;11110;52.386;16.940;2023-04-03T06:29:36;13.80;40.80
21891;DHT22;11110;52.386;16.940;2023-04-03T06:32:04;13.80;40.80
21891;DHT22;11110;52.386;16.940;2023-04-03T06:34:33;13.70;40.80
21891;DHT22;11110;52.386;16.940;2023-04-03T06:37:02;13.80;40.70
21891;DHT22;11110;52.386;16.940;2023-04-03T06:39:31;13.80;40.80
21891;DHT22;11110;52.386;16.940;2023-04-03T06:41:59;13.80;40.80
21891;DHT22;11110;52.386;16.940;2023-04-03T06:44:37;13.70;40.70
21891;DHT22;11110;52.386;16.940;2023-04-03T06:47:06;13.70;40.80
21891;DHT22;11110;52.386;16.940;2023-04-03T06:49:36;13.70;40.70
21891;DHT22;11110;52.386;16.940;2023-04-03T06:52:05;13.70;40.60
21891;DHT22;11110;52.386;16.940;2023-04-03T06:54:34;13.80;40.50
21891;DHT22;11110;52.386;16.940;2023-04-03T06:57:03;13.70;40.60
21891;DHT22;11110;52.386;16.940;2023-04-03T06:59:32;13.90;40.50
21891;DHT22;11110;52.386;16.940;2023-04-03T07:02:02;13.90;40.50
21891;DHT22;11110;52.386;16.940;2023-04-03T07:04:31;13.90;40.50
21891;DHT22;11110;52.386;16.940;2023-04-03T07:06:59;14.00;40.40
21891;DHT22;11110;52.386;16.940;2023-04-03T07:09:28;14.10;40.20
21891;DHT22;11110;52.386;16.940;2023-04-03T07:11:56;14.20;40.10
21891;DHT22;11110;52.386;16.940;2023-04-03T07:14:25;14.30;39.90
21891;DHT22;11110;52.386;16.940;2023-04-03T07:16:54;14.50;39.70
21891;DHT22;11110;52.386;16.940;2023-04-03T07:19:24;14.70;39.60
21891;DHT22;11110;52.386;16.940;2023-04-03T07:21:55;14.80;39.30
21891;DHT22;11110;52.386;16.940;2023-04-03T07:24:23;14.80;39.20
21891;DHT22;11110;52.386;16.940;2023-04-03T07:26:52;15.00;39.00
21891;DHT22;11110;52.386;16.940;2023-04-03T07:29:21;15.00;38.70
21891;DHT22;11110;52.386;16.940;2023-04-03T07:31:50;14.90;38.30
21891;DHT22;11110;52.386;16.940;2023-04-03T07:34:19;14.80;38.20
21891;DHT22;11110;52.386;16.940;2023-04-03T07:36:49;14.70;37.80
21891;DHT22;11110;52.386;16.940;2023-04-03T07:39:18;14.80;37.70
21891;DHT22;11110;52.386;16.940;2023-04-03T07:41:47;14.80;37.60
21891;DHT22;11110;52.386;16.940;2023-04-03T07:44:16;14.70;37.20
21891;DHT22;11110;52.386;16.940;2023-04-03T07:46:44;14.90;36.70
21891;DHT22;11110;52.386;16.940;2023-04-03T07:49:14;14.80;36.30
21891;DHT22;11110;52.386;16.940;2023-04-03T07:51:43;14.70;36.00
21891;DHT22;11110;52.386;16.940;2023-04-03T07:54:14;14.70;36.00
21891;DHT22;11110;52.386;16.940;2023-04-03T07:56:42;14.90;36.00
21891;DHT22;11110;52.386;16.940;2023-04-03T07:59:11;15.00;35.90
21891;DHT22;11110;52.386;16.940;2023-04-03T08:01:39;15.10;35.60
21891;DHT22;11110;52.386;16.940;2023-04-03T08:04:08;15.20;35.50
21891;DHT22;11110;52.386;16.940;2023-04-03T08:06:37;15.50;35.30
21891;DHT22;11110;52.386;16.940;2023-04-03T08:09:15;15.80;35.60
21891;DHT22;11110;52.386;16.940;2023-04-03T08:11:43;16.10;34.70
21891;DHT22;11110;52.386;16.940;2023-04-03T08:14:13;16.40;34.30
21891;DHT22;11110;52.386;16.940;2023-04-03T08:16:46;16.60;33.50
21891;DHT22;11110;52.386;16.940;2023-04-03T08:19:16;16.90;33.50
21891;DHT22;11110;52.386;16.940;2023-04-03T08:21:53;16.80;32.70
21891;DHT22;11110;52.386;16.940;2023-04-03T08:24:24;16.80;32.30
21891;DHT22;11110;52.386;16.940;2023-04-03T08:26:53;16.70;31.90
21891;DHT22;11110;52.386;16.940;2023-04-03T08:29:21;16.70;32.00
21891;DHT22;11110;52.386;16.940;2023-04-03T08:31:50;16.80;32.00
21891;DHT22;11110;52.386;16.940;2023-04-03T08:34:20;17.00;32.40
21891;DHT22;11110;52.386;16.940;2023-04-03T08:36:48;17.20;32.50
21891;DHT22;11110;52.386;16.940;2023-04-03T08:39:17;17.30;32.20
21891;DHT22;11110;52.386;16.940;2023-04-03T08:41:48;17.30;32.00
21891;DHT22;11110;52.386;16.940;2023-04-03T08:44:24;17.20;31.30
21891;DHT22;11110;52.386;16.940;2023-04-03T08:47:02;17.20;30.80
21891;DHT22;11110;52.386;16.940;2023-04-03T08:49:34;17.30;30.90
21891;DHT22;11110;52.386;16.940;2023-04-03T08:52:08;17.20;31.20
21891;DHT22;11110;52.386;16.940;2023-04-03T08:54:49;17.10;31.30
21891;DHT22;11110;52.386;16.940;2023-04-03T08:57:26;17.10;31.00
21891;DHT22;11110;52.386;16.940;2023-04-03T08:59:57;17.00;30.60
21891;DHT22;11110;52.386;16.940;2023-04-03T09:02:31;16.70;30.70
21891;DHT22;11110;52.386;16.940;2023-04-03T09:05:05;16.50;31.00
21891;DHT22;11110;52.386;16.940;2023-04-03T09:07:43;16.50;30.90
21891;DHT22;11110;52.386;16.940;2023-04-03T09:10:21;16.40;30.90
21891;DHT22;11110;52.386;16.940;2023-04-03T09:12:58;16.30;31.00
21891;DHT22;11110;52.386;16.940;2023-04-03T09:15:28;16.30;31.10
21891;DHT22;11110;52.386;16.940;2023-04-03T09:18:08;16.20;31.20
21891;DHT22;11110;52.386;16.940;2023-04-03T09:20:46;16.20;31.20
21891;DHT22;11110;52.386;16.940;2023-04-03T09:23:22;16.10;31.00
21891;DHT22;11110;52.386;16.940;2023-04-03T09:25:57;16.00;30.90
21891;DHT22;11110;52.386;16.940;2023-04-03T09:28:30;15.90;31.10
21891;DHT22;11110;52.386;16.940;2023-04-03T09:31:17;15.80;31.00
21891;DHT22;11110;52.386;16.940;2023-04-03T09:33:49;15.70;31.30
21891;DHT22;11110;52.386;16.940;2023-04-03T09:36:43;15.80;31.50
21891;DHT22;11110;52.386;16.940;2023-04-03T09:39:14;16.00;31.30
21891;DHT22;11110;52.386;16.940;2023-04-03T09:41:56;16.10;30.40
21891;DHT22;11110;52.386;16.940;2023-04-03T09:44:28;15.90;30.20
21891;DHT22;11110;52.386;16.940;2023-04-03T09:46:57;15.80;30.70
21891;DHT22;11110;52.386;16.940;2023-04-03T09:49:26;15.90;30.70
21891;DHT22;11110;52.386;16.940;2023-04-03T09:51:56;15.90;30.50
21891;DHT22;11110;52.386;16.940;2023-04-03T09:54:31;15.60;30.50
21891;DHT22;11110;52.386;16.940;2023-04-03T09:57:04;15.60;30.90
21891;DHT22;11110;52.386;16.940;2023-04-03T09:59:36;15.50;31.10
21891;DHT22;11110;52.386;16.940;2023-04-03T10:02:22;15.50;31.10
21891;DHT22;11110;52.386;16.940;2023-04-03T10:04:52;15.60;31.20
21891;DHT22;11110;52.386;16.940;2023-04-03T10:07:37;15.60;31.00
21891;DHT22;11110;52.386;16.940;2023-04-03T10:10:18;15.70;31.20
21891;DHT22;11110;52.386;16.940;2023-04-03T10:12:47;15.90;30.90
21891;DHT22;11110;52.386;16.940;2023-04-03T10:15:18;16.30;30.30
21891;DHT22;11110;52.386;16.940;2023-04-03T10:17:53;16.40;30.20
21891;DHT22;11110;52.386;16.940;2023-04-03T10:20:29;16.60;29.50
21891;DHT22;11110;52.386;16.940;2023-04-03T10:23:15;16.40;29.70
21891;DHT22;11110;52.386;16.940;2023-04-03T10:25:55;16.40;29.80
21891;DHT22;11110;52.386;16.940;2023-04-03T10:28:30;16.40;29.90
21891;DHT22;11110;52.386;16.940;2023-04-03T10:31:05;16.60;30.00
21891;DHT22;11110;52.386;16.940;2023-04-03T10:33:53;16.70;30.10
21891;DHT22;11110;52.386;16.940;2023-04-03T10:36:33;16.50;30.20
21891;DHT22;11110;52.386;16.940;2023-04-03T10:39:10;16.40;30.10
21891;DHT22;11110;52.386;16.940;2023-04-03T10:41:50;16.40;30.40
21891;DHT22;11110;52.386;16.940;2023-04-03T10:44:51;16.40;30.40
21891;DHT22;11110;52.386;16.940;2023-04-03T10:47:27;16.60;29.90
21891;DHT22;11110;52.386;16.940;2023-04-03T10:50:14;16.80;30.10
21891;DHT22;11110;52.386;16.940;2023-04-03T10:52:54;16.90;29.90
21891;DHT22;11110;52.386;16.940;2023-04-03T10:55:33;16.70;30.00
21891;DHT22;11110;52.386;16.940;2023-04-03T10:58:05;16.70;30.00
21891;DHT22;11110;52.386;16.940;2023-04-03T11:00:39;16.90;30.00
21891;DHT22;11110;52.386;16.940;2023-04-03T11:03:13;17.00;29.90
21891;DHT22;11110;52.386;16.940;2023-04-03T11:05:44;17.00;29.80
21891;DHT22;11110;52.386;16.940;2023-04-03T11:08:21;16.90;29.80
21891;DHT22;11110;52.386;16.940;2023-04-03T11:10:54;16.90;29.70
21891;DHT22;11110;52.386;16.940;2023-04-03T11:13:28;16.80;29.70
21891;DHT22;11110;52.386;16.940;2023-04-03T11:15:59;17.00;29.80
21891;DHT22;11110;52.386;16.940;2023-04-03T11:18:32;17.20;29.50
21891;DHT22;11110;52.386;16.940;2023-04-03T11:21:07;17.30;29.70
21891;DHT22;11110;52.386;16.940;2023-04-03T11:23:39;17.30;29.70
21891;DHT22;11110;52.386;16.940;2023-04-03T11:26:18;17.40;29.60
21891;DHT22;11110;52.386;16.940;2023-04-03T11:28:52;17.40;29.70
21891;DHT22;11110;52.386;16.940;2023-04-03T11:31:37;17.60;29.40
21891;DHT22;11110;52.386;16.940;2023-04-03T11:34:20;17.60;29.30
21891;DHT22;11110;52.386;16.940;2023-04-03T11:36:55;17.30;28.70
21891;DHT22;11110;52.386;16.940;2023-04-03T11:39:28;17.10;28.60
21891;DHT22;11110;52.386;16.940;2023-04-03T11:42:14;17.00;28.70
21891;DHT22;11110;52.386;16.940;2023-04-03T11:44:44;17.00;28.70
21891;DHT22;11110;52.386;16.940;2023-04-03T11:50:40;17.10;29.10
21891;DHT22;11110;52.386;16.940;2023-04-03T11:53:31;17.20;29.10
21891;DHT22;11110;52.386;16.940;2023-04-03T11:59:15;17.00;29.00
21891;DHT22;11110;52.386;16.940;2023-04-03T12:01:47;17.00;28.90
21891;DHT22;11110;52.386;16.940;2023-04-03T12:04:18;17.10;28.90
21891;DHT22;11110;52.386;16.940;2023-04-03T12:09:58;17.00;28.80
21891;DHT22;11110;52.386;16.940;2023-04-03T12:12:34;17.10;28.90
21891;DHT22;11110;52.386;16.940;2023-04-03T12:15:23;17.20;28.80
21891;DHT22;11110;52.386;16.940;2023-04-03T12:17:52;17.50;29.10
21891;DHT22;11110;52.386;16.940;2023-04-03T12:20:55;17.80;28.60
21891;DHT22;11110;52.386;16.940;2023-04-03T12:23:30;18.20;28.60
21891;DHT22;11110;52.386;16.940;2023-04-03T12:26:05;18.50;28.10
21891;DHT22;11110;52.386;16.940;2023-04-03T12:28:39;18.40;27.80
21891;DHT22;11110;52.386;16.940;2023-04-03T12:31:10;18.20;27.50
21891;DHT22;11110;52.386;16.940;2023-04-03T12:36:39;17.90;27.70
21891;DHT22;11110;52.386;16.940;2023-04-03T12:42:19;18.00;27.70
21891;DHT22;11110;52.386;16.940;2023-04-03T12:44:56;18.20;27.50
21891;DHT22;11110;52.386;16.940;2023-04-03T12:47:31;18.20;27.30
21891;DHT22;11110;52.386;16.940;2023-04-03T12:50:04;18.00;27.60
21891;DHT22;11110;52.386;16.940;2023-04-03T12:52:38;17.90;28.00
21891;DHT22;11110;52.386;16.940;2023-04-03T12:55:15;17.80;28.30
21891;DHT22;11110;52.386;16.940;2023-04-03T12:57:45;17.80;28.30
21891;DHT22;11110;52.386;16.940;2023-04-03T13:00:31;17.60;28.10
21891;DHT22;11110;52.386;16.940;2023-04-03T13:03:02;17.70;28.00
21891;DHT22;11110;52.386;16.940;2023-04-03T13:05:32;18.10;27.40
21891;DHT22;11110;52.386;16.940;2023-04-03T13:08:05;18.10;27.80
21891;DHT22;11110;52.386;16.940;2023-04-03T13:10:50;18.30;27.60
21891;DHT22;11110;52.386;16.940;2023-04-03T13:13:22;18.30;27.20
21891;DHT22;11110;52.386;16.940;2023-04-03T13:15:51;18.30;27.60
21891;DHT22;11110;52.386;16.940;2023-04-03T13:18:29;18.60;27.60
21891;DHT22;11110;52.386;16.940;2023-04-03T13:21:03;18.60;27.20
21891;DHT22;11110;52.386;16.940;2023-04-03T13:23:36;18.40;27.10
21891;DHT22;11110;52.386;16.940;2023-04-03T13:26:08;18.30;26.80
21891;DHT22;11110;52.386;16.940;2023-04-03T13:28:39;18.30;27.00
21891;DHT22;11110;52.386;16.940;2023-04-03T13:31:15;18.40;27.00
21891;DHT22;11110;52.386;16.940;2023-04-03T13:33:55;18.40;27.10
21891;DHT22;11110;52.386;16.940;2023-04-03T13:36:26;18.50;27.30
21891;DHT22;11110;52.386;16.940;2023-04-03T13:39:00;18.40;27.40
21891;DHT22;11110;52.386;16.940;2023-04-03T13:41:32;18.30;27.30
21891;DHT22;11110;52.386;16.940;2023-04-03T13:44:30;18.20;27.20
21891;DHT22;11110;52.386;16.940;2023-04-03T13:47:00;18.00;27.40
21891;DHT22;11110;52.386;16.940;2023-04-03T13:49:43;17.90;27.40
21891;DHT22;11110;52.386;16.940;2023-04-03T13:52:23;17.90;27.60
21891;DHT22;11110;52.386;16.940;2023-04-03T13:54:59;17.80;27.60
21891;DHT22;11110;52.386;16.940;2023-04-03T13:57:33;17.70;27.60
21891;DHT22;11110;52.386;16.940;2023-04-03T14:03:13;17.60;27.80
21891;DHT22;11110;52.386;16.940;2023-04-03T14:05:42;17.50;28.10
21891;DHT22;11110;52.386;16.940;2023-04-03T14:08:12;17.60;28.10
21891;DHT22;11110;52.386;16.940;2023-04-03T14:10:41;17.70;27.70
21891;DHT22;11110;52.386;16.940;2023-04-03T14:13:12;17.70;27.20
21891;DHT22;11110;52.386;16.940;2023-04-03T14:15:42;17.60;27.20
21891;DHT22;11110;52.386;16.940;2023-04-03T14:18:12;17.60;27.10
21891;DHT22;11110;52.386;16.940;2023-04-03T14:20:42;17.80;27.00
21891;DHT22;11110;52.386;16.940;2023-04-03T14:23:10;17.90;27.00
21891;DHT22;11110;52.386;16.940;2023-04-03T14:25:40;18.00;27.10
21891;DHT22;11110;52.386;16.940;2023-04-03T14:28:17;18.00;27.20
21891;DHT22;11110;52.386;16.940;2023-04-03T14:30:47;18.10;27.30
21891;DHT22;11110;52.386;16.940;2023-04-03T14:33:18;18.10;27.50
21891;DHT22;11110;52.386;16.940;2023-04-03T14:35:48;18.10;27.30
21891;DHT22;11110;52.386;16.940;2023-04-03T14:38:24;18.20;27.30
21891;DHT22;11110;52.386;16.940;2023-04-03T14:40:54;18.30;27.00
21891;DHT22;11110;52.386;16.940;2023-04-03T14:46:02;18.50;26.70
21891;DHT22;11110;52.386;16.940;2023-04-03T14:48:31;18.70;26.70
21891;DHT22;11110;52.386;16.940;2023-04-03T14:51:00;18.80;26.60
21891;DHT22;11110;52.386;16.940;2023-04-03T14:53:32;18.80;26.30
21891;DHT22;11110;52.386;16.940;2023-04-03T14:56:11;18.70;26.20
21891;DHT22;11110;52.386;16.940;2023-04-03T14:58:41;18.70;26.60
21891;DHT22;11110;52.386;16.940;2023-04-03T15:01:10;18.70;26.30
21891;DHT22;11110;52.386;16.940;2023-04-03T15:03:41;18.50;26.60
21891;DHT22;11110;52.386;16.940;2023-04-03T15:06:11;18.40;26.90
21891;DHT22;11110;52.386;16.940;2023-04-03T15:08:41;18.40;27.00
21891;DHT22;11110;52.386;16.940;2023-04-03T15:11:12;18.30;26.80
21891;DHT22;11110;52.386;16.940;2023-04-03T15:13:42;18.20;26.60
21891;DHT22;11110;52.386;16.940;2023-04-03T15:16:16;18.30;26.60
21891;DHT22;11110;52.386;16.940;2023-04-03T15:18:45;18.20;26.40
21891;DHT22;11110;52.386;16.940;2023-04-03T15:21:14;18.30;26.40
21891;DHT22;11110;52.386;16.940;2023-04-03T15:23:43;18.20;26.20
21891;DHT22;11110;52.386;16.940;2023-04-03T15:26:12;18.30;26.40
21891;DHT22;11110;52.386;16.940;2023-04-03T15:28:42;18.40;26.40
21891;DHT22;11110;52.386;16.940;2023-04-03T15:31:11;18.50;26.40
21891;DHT22;11110;52.386;16.940;2023-04-03T15:33:40;18.50;26.40
21891;DHT22;11110;52.386;16.940;2023-04-03T15:36:09;18.60;26.60
21891;DHT22;11110;52.386;16.940;2023-04-03T15:38:57;18.80;26.60
21891;DHT22;11110;52.386;16.940;2023-04-03T15:41:26;18.70;26.50
21891;DHT22;11110;52.386;16.940;2023-04-03T15:43:56;18.90;26.40
21891;DHT22;11110;52.386;16.940;2023-04-03T15:46:25;19.00;26.60
21891;DHT22;11110;52.386;16.940;2023-04-03T15:48:53;18.90;26.60
21891;DHT22;11110;52.386;16.940;2023-04-03T15:51:22;18.70;26.60
21891;DHT22;11110;52.386;16.940;2023-04-03T15:53:51;18.60;26.70
21891;DHT22;11110;52.386;16.940;2023-04-03T15:56:19;18.50;26.90
21891;DHT22;11110;52.386;16.940;2023-04-03T15:58:48;18.40;27.10
21891;DHT22;11110;52.386;16.940;2023-04-03T16:01:18;18.40;27.30
21891;DHT22;11110;52.386;16.940;2023-04-03T16:03:47;18.50;27.20
21891;DHT22;11110;52.386;16.940;2023-04-03T16:06:17;18.20;27.20